Time;durP1;ratioP1;P1;durP2;ratioP2;P2;SDS_P1;SDS_P2;PMS_P1;PMS_P2;Temp;Humidity;BMP_temperature;BMP_pressure;BME280_temperature;BME280_humidity;BME280_pressure;Samples;Min_cycle;Max_cycle;Signal;HPM_P1;HPM_P2
2023/08/30 00:02:20;;;;;;;3.47;1.80;;;;;;;;;;5114095;28;20202;-46
2023/08/30 00:04:47;;;;;;;3.65;1.83;;;;;;;;;;5114086;28;20197;-49
2023/08/30 00:07:14;;;;;;;7.88;2.08;;;;;;;;;;5114068;28;20201;-48
2023/08/30 00:09:41;;;;;;;8.68;2.00;;;;;;;;;;5114224;28;20565;-46
2023/08/30 00:12:09;;;;;;;4.68;1.85;;;;;;;;;;5114207;28;20549;-49
2023/08/30 00:14:36;;;;;;;7.78;1.85;;;;;;;;;;5114001;28;20202;-46
2023/08/30 00:17:03;;;;;;;3.95;2.05;;;;;;;;;;5114174;28;20734;-46
2023/08/30 00:19:31;;;;;;;3.38;1.60;;;;;;;;;;5113985;28;20200;-45
2023/08/30 00:21:58;;;;;;;6.65;1.88;;;;;;;;;;5114137;28;20202;-47
2023/08/30 00:24:25;;;;;;;7.85;2.28;;;;;;;;;;5114036;28;20197;-48
2023/08/30 00:26:53;;;;;;;6.18;1.83;;;;;;;;;;5114013;28;20226;-46
2023/08/30 00:29:20;;;;;;;3.88;2.08;;;;;;;;;;5113897;28;20217;-47
2023/08/30 00:31:47;;;;;;;4.47;2.03;;;;;;;;;;5112809;28;20205;-48
2023/08/30 00:34:14;;;;;;;4.18;2.17;;;;;;;;;;5112567;28;20258;-48
2023/08/30 00:36:42;;;;;;;3.17;1.80;;;;;;;;;;5113720;28;20221;-49
2023/08/30 00:39:09;;;;;;;5.60;2.00;;;;;;;;;;5113751;28;20247;-47
2023/08/30 00:41:36;;;;;;;5.63;2.20;;;;;;;;;;5113901;28;20202;-47
2023/08/30 00:44:04;;;;;;;5.57;2.10;;;;;;;;;;5113785;28;20209;-46
2023/08/30 00:46:32;;;;;;;5.93;2.25;;;;;;;;;;5112652;28;20225;-46
2023/08/30 00:49:01;;;;;;;9.65;2.33;;;;;;;;;;5113736;28;20654;-47
2023/08/30 00:51:29;;;;;;;4.82;2.22;;;;;;;;;;5112699;28;20198;-45
2023/08/30 00:53:56;;;;;;;3.65;2.08;;;;;;;;;;5113766;28;20280;-46
2023/08/30 00:56:24;;;;;;;6.20;2.22;;;;;;;;;;5112369;28;20709;-49
2023/08/30 00:58:51;;;;;;;3.65;2.00;;;;;;;;;;5112608;28;20199;-50
2023/08/30 01:01:19;;;;;;;3.60;2.15;;;;;;;;;;5095516;28;20255;-49
2023/08/30 01:03:46;;;;;;;4.47;2.15;;;;;;;;;;5112656;28;20198;-47
2023/08/30 01:06:14;;;;;;;5.90;2.20;;;;;;;;;;5113391;28;20218;-48
2023/08/30 01:08:44;;;;;;;4.82;2.63;;;;;;;;;;5112738;28;20198;-45
2023/08/30 01:11:26;;;;;;;6.57;2.85;;;;;;;;;;5114850;28;20205;-47
2023/08/30 01:13:58;;;;;;;6.68;2.60;;;;;;;;;;5117238;28;20650;-47
2023/08/30 01:16:26;;;;;;;6.70;2.70;;;;;;;;;;5116329;28;20197;-48
2023/08/30 01:18:56;;;;;;;8.02;2.38;;;;;;;;;;5116330;28;20202;-47
2023/08/30 01:21:36;;;;;;;6.35;3.10;;;;;;;;;;5116130;28;20208;-46
2023/08/30 01:24:07;;;;;;;8.35;2.80;;;;;;;;;;5117235;28;20206;-47
2023/08/30 01:27:10;;;;;;;4.13;2.55;;;;;;;;;;5099292;28;20214;-46
2023/08/30 01:29:39;;;;;;;4.97;2.85;;;;;;;;;;5034300;28;20301;-47
2023/08/30 01:32:08;;;;;;;7.90;3.13;;;;;;;;;;5001736;28;20196;-45
2023/08/30 01:34:37;;;;;;;6.70;2.70;;;;;;;;;;5034216;28;20303;-47
2023/08/30 01:37:06;;;;;;;5.60;2.50;;;;;;;;;;5033953;28;20263;-45
2023/08/30 01:39:36;;;;;;;6.63;2.50;;;;;;;;;;5001576;28;20197;-46
2023/08/30 01:42:04;;;;;;;8.90;2.95;;;;;;;;;;5034177;28;20599;-47
2023/08/30 01:44:31;;;;;;;6.30;3.08;;;;;;;;;;5017701;28;20197;-46
2023/08/30 01:46:59;;;;;;;8.95;2.72;;;;;;;;;;5033996;28;20688;-47
2023/08/30 01:49:28;;;;;;;4.95;2.20;;;;;;;;;;5033991;28;20201;-47
2023/08/30 01:51:56;;;;;;;8.32;2.75;;;;;;;;;;5033896;28;20209;-49
2023/08/30 01:54:24;;;;;;;3.90;2.58;;;;;;;;;;5001217;28;20207;-49
2023/08/30 01:56:51;;;;;;;4.00;2.55;;;;;;;;;;5001304;28;20223;-47
2023/08/30 01:59:18;;;;;;;9.95;3.05;;;;;;;;;;5033895;28;20201;-47
2023/08/30 02:01:45;;;;;;;6.35;2.50;;;;;;;;;;5033726;28;20263;-46
2023/08/30 02:04:13;;;;;;;5.85;2.50;;;;;;;;;;5033747;28;20199;-46
2023/08/30 02:06:53;;;;;;;8.05;2.55;;;;;;;;;;5098738;28;20254;-48
2023/08/30 02:09:33;;;;;;;15.15;2.80;;;;;;;;;;5115137;28;20654;-48
2023/08/30 02:12:05;;;;;;;3.92;2.70;;;;;;;;;;5098263;28;20255;-48
2023/08/30 02:14:33;;;;;;;6.20;2.72;;;;;;;;;;5116439;28;20204;-48
2023/08/30 02:17:00;;;;;;;4.43;2.70;;;;;;;;;;5114892;28;20201;-49
2023/08/30 02:19:27;;;;;;;5.85;2.63;;;;;;;;;;5098177;28;20224;-46
2023/08/30 02:21:54;;;;;;;4.00;2.50;;;;;;;;;;5114901;28;20210;-45
2023/08/30 02:24:21;;;;;;;5.03;2.47;;;;;;;;;;5116013;28;20263;-46
2023/08/30 02:26:49;;;;;;;8.73;3.15;;;;;;;;;;5114688;28;20233;-47
2023/08/30 02:29:16;;;;;;;5.20;2.60;;;;;;;;;;5114920;28;20202;-47
2023/08/30 02:31:43;;;;;;;8.32;3.00;;;;;;;;;;5114847;28;20557;-50
2023/08/30 02:34:10;;;;;;;7.93;2.85;;;;;;;;;;5115764;28;20194;-46
2023/08/30 02:36:38;;;;;;;5.32;2.38;;;;;;;;;;5115373;28;20761;-49
2023/08/30 02:39:05;;;;;;;4.18;2.58;;;;;;;;;;5114672;28;20210;-47
2023/08/30 02:41:32;;;;;;;4.65;2.60;;;;;;;;;;5115847;28;20209;-46
2023/08/30 02:44:00;;;;;;;6.05;2.90;;;;;;;;;;5116098;28;20201;-46
2023/08/30 02:46:27;;;;;;;5.05;3.05;;;;;;;;;;5115744;28;20580;-46
2023/08/30 02:48:55;;;;;;;3.58;2.65;;;;;;;;;;5115381;28;20209;-46
2023/08/30 02:51:23;;;;;;;5.95;2.72;;;;;;;;;;5115565;28;20561;-47
2023/08/30 02:53:50;;;;;;;6.63;2.95;;;;;;;;;;5114184;28;20212;-48
2023/08/30 02:56:17;;;;;;;11.80;3.20;;;;;;;;;;5114509;28;20259;-48
2023/08/30 02:58:45;;;;;;;5.90;2.50;;;;;;;;;;5115306;28;20284;-47
2023/08/30 03:01:12;;;;;;;8.70;2.83;;;;;;;;;;5097497;28;20206;-50
2023/08/30 03:03:39;;;;;;;7.50;2.83;;;;;;;;;;5114270;28;20303;-46
2023/08/30 03:06:07;;;;;;;8.02;3.30;;;;;;;;;;5114896;28;20229;-46
2023/08/30 03:08:34;;;;;;;4.07;2.97;;;;;;;;;;5113663;28;20205;-48
2023/08/30 03:11:11;;;;;;;7.88;3.08;;;;;;;;;;5114853;28;20662;-49
2023/08/30 03:13:43;;;;;;;8.07;3.65;;;;;;;;;;5113811;28;20201;-47
2023/08/30 03:16:16;;;;;;;11.05;3.70;;;;;;;;;;5113793;28;20218;-49
2023/08/30 03:18:43;;;;;;;5.53;3.17;;;;;;;;;;5113839;28;20205;-46
2023/08/30 03:21:11;;;;;;;9.13;2.80;;;;;;;;;;5114661;28;20642;-49
2023/08/30 03:23:39;;;;;;;9.45;3.35;;;;;;;;;;5113386;28;20255;-50
2023/08/30 03:26:13;;;;;;;4.40;3.08;;;;;;;;;;5113405;28;20237;-48
2023/08/30 03:28:42;;;;;;;6.32;3.10;;;;;;;;;;5114280;28;20231;-46
2023/08/30 03:31:19;;;;;;;8.88;3.35;;;;;;;;;;5111884;28;20198;-49
2023/08/30 03:33:49;;;;;;;9.07;3.22;;;;;;;;;;5112763;28;20217;-47
2023/08/30 03:36:18;;;;;;;5.75;3.63;;;;;;;;;;5109005;28;20237;-47
2023/08/30 03:38:45;;;;;;;4.78;3.13;;;;;;;;;;5105645;28;20218;-47
2023/08/30 03:41:13;;;;;;;5.25;3.50;;;;;;;;;;5108641;28;20247;-48
2023/08/30 03:43:42;;;;;;;5.55;3.63;;;;;;;;;;5105259;28;20198;-46
2023/08/30 03:46:11;;;;;;;8.48;3.25;;;;;;;;;;5103124;28;20222;-46
2023/08/30 03:48:39;;;;;;;11.30;3.58;;;;;;;;;;5104844;28;20208;-48
2023/08/30 03:51:06;;;;;;;7.50;3.67;;;;;;;;;;5113357;28;20210;-46
2023/08/30 03:53:34;;;;;;;7.40;3.50;;;;;;;;;;5111862;28;20239;-46
2023/08/30 03:56:03;;;;;;;8.63;3.03;;;;;;;;;;5113039;28;20237;-46
2023/08/30 03:58:31;;;;;;;6.10;3.53;;;;;;;;;;5113003;28;20198;-46
2023/08/30 04:00:59;;;;;;;9.25;3.38;;;;;;;;;;5112723;28;20202;-47
2023/08/30 04:03:26;;;;;;;9.80;3.65;;;;;;;;;;5114238;28;20213;-46
2023/08/30 04:05:57;;;;;;;4.90;3.30;;;;;;;;;;5112539;28;20210;-46
2023/08/30 04:08:24;;;;;;;11.40;4.07;;;;;;;;;;5113907;27;20202;-47
2023/08/30 04:10:53;;;;;;;5.05;3.53;;;;;;;;;;5112756;28;20202;-46
2023/08/30 04:13:20;;;;;;;11.57;4.53;;;;;;;;;;5109366;28;20217;-46
2023/08/30 04:15:47;;;;;;;6.53;3.65;;;;;;;;;;5111219;28;20222;-47
2023/08/30 04:18:15;;;;;;;9.38;4.15;;;;;;;;;;5112095;28;20576;-46
2023/08/30 04:20:47;;;;;;;8.95;3.92;;;;;;;;;;5111353;28;20705;-46
2023/08/30 04:23:14;;;;;;;6.65;3.70;;;;;;;;;;5099398;28;20304;-47
2023/08/30 04:25:44;;;;;;;8.20;4.10;;;;;;;;;;5098782;28;20233;-47
2023/08/30 04:28:11;;;;;;;7.00;3.75;;;;;;;;;;5102285;28;20607;-49
2023/08/30 04:30:38;;;;;;;8.25;4.13;;;;;;;;;;5109492;28;20251;-46
2023/08/30 04:33:07;;;;;;;8.43;4.05;;;;;;;;;;5112315;28;20313;-47
2023/08/30 04:35:35;;;;;;;5.95;3.67;;;;;;;;;;5111428;28;20566;-49
2023/08/30 04:38:03;;;;;;;7.30;3.97;;;;;;;;;;5111957;28;20217;-46
2023/08/30 04:40:32;;;;;;;7.53;4.03;;;;;;;;;;5111742;28;20221;-50
2023/08/30 04:42:59;;;;;;;8.25;3.78;;;;;;;;;;5111682;28;20704;-47
2023/08/30 04:45:27;;;;;;;7.30;3.60;;;;;;;;;;5111458;28;20597;-46
2023/08/30 04:47:55;;;;;;;10.88;4.60;;;;;;;;;;5117079;28;20240;-46
2023/08/30 04:50:25;;;;;;;5.95;3.92;;;;;;;;;;5115868;28;20222;-46
2023/08/30 04:52:52;;;;;;;10.70;4.22;;;;;;;;;;5115783;28;20279;-47
2023/08/30 04:55:19;;;;;;;6.03;3.97;;;;;;;;;;5114756;28;20225;-48
2023/08/30 04:57:47;;;;;;;8.05;3.92;;;;;;;;;;5115783;28;20238;-46
2023/08/30 05:00:18;;;;;;;8.43;4.18;;;;;;;;;;5099939;28;20238;-49
2023/08/30 05:02:46;;;;;;;7.05;4.13;;;;;;;;;;5096285;28;20223;-47
2023/08/30 05:05:15;;;;;;;11.07;4.18;;;;;;;;;;5095179;28;20234;-46
2023/08/30 05:07:42;;;;;;;10.32;4.32;;;;;;;;;;5094956;28;20660;-46
2023/08/30 05:10:10;;;;;;;9.85;3.97;;;;;;;;;;5095283;28;20601;-47
2023/08/30 05:12:37;;;;;;;7.32;3.83;;;;;;;;;;5096593;28;20229;-46
2023/08/30 05:15:05;;;;;;;9.80;4.15;;;;;;;;;;5098197;28;20201;-47
2023/08/30 05:17:32;;;;;;;8.30;3.83;;;;;;;;;;5094253;28;20750;-46
2023/08/30 05:20:02;;;;;;;9.95;3.80;;;;;;;;;;5094397;28;20772;-47
2023/08/30 05:22:30;;;;;;;9.15;4.05;;;;;;;;;;5096724;28;20722;-46
2023/08/30 05:24:58;;;;;;;8.30;3.85;;;;;;;;;;5095482;28;20198;-46
2023/08/30 05:27:25;;;;;;;7.57;3.95;;;;;;;;;;5095312;28;20219;-49
2023/08/30 05:29:55;;;;;;;10.40;4.15;;;;;;;;;;5095390;28;20206;-46
2023/08/30 05:32:23;;;;;;;5.25;3.67;;;;;;;;;;5095387;28;20194;-47
2023/08/30 05:35:09;;;;;;;5.65;3.50;;;;;;;;;;5095350;28;20194;-46
2023/08/30 05:37:48;;;;;;;8.40;4.35;;;;;;;;;;5096577;28;20234;-47
2023/08/30 05:40:27;;;;;;;8.82;3.65;;;;;;;;;;5095131;28;20617;-46
2023/08/30 05:42:55;;;;;;;11.70;4.18;;;;;;;;;;5096298;28;20198;-46
2023/08/30 05:45:22;;;;;;;9.25;4.43;;;;;;;;;;5095182;28;20206;-47
2023/08/30 05:47:49;;;;;;;7.70;3.92;;;;;;;;;;5096626;28;20237;-46
2023/08/30 05:50:17;;;;;;;6.78;4.05;;;;;;;;;;5095272;28;20211;-46
2023/08/30 05:52:44;;;;;;;10.75;4.18;;;;;;;;;;5095044;28;20225;-48
2023/08/30 05:55:12;;;;;;;9.27;4.35;;;;;;;;;;5096000;28;20604;-46
2023/08/30 05:57:39;;;;;;;8.75;4.05;;;;;;;;;;5094494;28;20600;-47
2023/08/30 06:00:08;;;;;;;8.93;4.18;;;;;;;;;;5094813;28;20202;-46
2023/08/30 06:02:41;;;;;;;9.25;4.22;;;;;;;;;;5096318;28;20197;-47
2023/08/30 06:05:09;;;;;;;6.13;4.00;;;;;;;;;;5095937;28;20195;-47
2023/08/30 06:07:36;;;;;;;5.97;3.88;;;;;;;;;;5095732;28;20751;-48
2023/08/30 06:10:04;;;;;;;7.22;3.92;;;;;;;;;;5096115;28;20209;-47
2023/08/30 06:12:31;;;;;;;5.40;3.47;;;;;;;;;;5095710;28;20256;-48
2023/08/30 06:14:58;;;;;;;9.35;4.07;;;;;;;;;;5095725;28;20210;-48
2023/08/30 06:17:25;;;;;;;8.20;4.05;;;;;;;;;;5095833;28;20217;-46
2023/08/30 06:19:53;;;;;;;10.02;4.38;;;;;;;;;;5096075;28;20207;-47
2023/08/30 06:22:20;;;;;;;5.93;3.92;;;;;;;;;;5095590;28;20203;-46
2023/08/30 06:24:47;;;;;;;9.50;4.20;;;;;;;;;;5095865;28;20218;-46
2023/08/30 06:27:14;;;;;;;6.07;4.00;;;;;;;;;;5095768;28;20549;-47
2023/08/30 06:29:41;;;;;;;8.38;4.18;;;;;;;;;;5095496;28;20204;-47
2023/08/30 06:32:08;;;;;;;9.63;4.35;;;;;;;;;;5095430;28;20256;-48
2023/08/30 06:34:36;;;;;;;7.18;4.50;;;;;;;;;;5095368;28;20209;-47
2023/08/30 06:37:03;;;;;;;9.25;4.88;;;;;;;;;;5095603;28;20238;-47
2023/08/30 06:39:36;;;;;;;7.68;3.75;;;;;;;;;;5105216;28;20547;-47
2023/08/30 06:42:04;;;;;;;7.72;4.50;;;;;;;;;;5105976;28;20634;-49
2023/08/30 06:44:31;;;;;;;11.25;4.65;;;;;;;;;;5104874;28;20307;-48
2023/08/30 06:46:58;;;;;;;10.02;4.50;;;;;;;;;;5103747;28;20228;-47
2023/08/30 06:49:31;;;;;;;7.15;4.75;;;;;;;;;;5104210;28;20222;-47
2023/08/30 06:51:59;;;;;;;6.80;4.10;;;;;;;;;;5104335;28;20198;-48
2023/08/30 06:54:26;;;;;;;7.88;3.95;;;;;;;;;;5094861;28;20666;-47
2023/08/30 06:56:57;;;;;;;6.70;3.92;;;;;;;;;;5094879;28;20206;-48
2023/08/30 06:59:26;;;;;;;9.98;4.18;;;;;;;;;;5093825;28;20191;-50
2023/08/30 07:01:53;;;;;;;8.07;3.83;;;;;;;;;;5091444;28;20238;-48
2023/08/30 07:04:20;;;;;;;8.93;4.15;;;;;;;;;;5105588;28;20248;-47
2023/08/30 07:06:47;;;;;;;7.50;4.25;;;;;;;;;;5114077;27;20249;-47
2023/08/30 07:09:14;;;;;;;9.02;4.40;;;;;;;;;;5110016;28;20223;-47
2023/08/30 07:11:44;;;;;;;5.75;4.50;;;;;;;;;;5104824;28;20229;-46
2023/08/30 07:14:14;;;;;;;7.60;4.57;;;;;;;;;;5094218;28;20241;-47
2023/08/30 07:16:41;;;;;;;10.55;4.72;;;;;;;;;;5108504;28;20333;-47
2023/08/30 07:19:09;;;;;;;8.35;4.45;;;;;;;;;;5113852;28;20717;-47
2023/08/30 07:21:38;;;;;;;7.75;4.45;;;;;;;;;;5114009;28;20234;-49
2023/08/30 07:24:06;;;;;;;6.20;4.30;;;;;;;;;;5113961;28;20276;-46
2023/08/30 07:26:34;;;;;;;7.43;4.55;;;;;;;;;;5113710;28;20230;-50
2023/08/30 07:29:26;;;;;;;6.95;4.03;;;;;;;;;;5102457;28;20227;-50
2023/08/30 07:31:54;;;;;;;7.03;4.05;;;;;;;;;;5110955;28;20229;-50
2023/08/30 07:34:21;;;;;;;7.68;4.28;;;;;;;;;;5111815;28;20224;-50
2023/08/30 07:36:48;;;;;;;10.35;4.18;;;;;;;;;;5112035;28;20229;-49
2023/08/30 07:39:16;;;;;;;6.43;4.30;;;;;;;;;;5105944;28;20244;-49
2023/08/30 07:41:43;;;;;;;7.60;4.05;;;;;;;;;;5111121;28;20205;-51
2023/08/30 07:44:10;;;;;;;8.05;3.67;;;;;;;;;;5104456;27;20212;-50
2023/08/30 07:46:38;;;;;;;5.65;3.60;;;;;;;;;;5107399;28;20198;-50
2023/08/30 07:49:05;;;;;;;8.50;4.00;;;;;;;;;;5098505;28;20533;-53
2023/08/30 07:51:32;;;;;;;8.38;4.05;;;;;;;;;;5106322;28;20344;-50
2023/08/30 07:54:00;;;;;;;7.50;4.28;;;;;;;;;;5105975;28;20225;-53
2023/08/30 07:56:29;;;;;;;7.07;4.20;;;;;;;;;;5107639;28;20210;-49
2023/08/30 07:58:57;;;;;;;5.78;3.90;;;;;;;;;;5100968;28;20237;-51
2023/08/30 08:01:24;;;;;;;7.85;4.05;;;;;;;;;;5101729;28;20329;-51
2023/08/30 08:03:51;;;;;;;8.57;3.92;;;;;;;;;;5102517;28;20697;-49
2023/08/30 08:06:33;;;;;;;8.48;3.58;;;;;;;;;;5097175;28;20761;-49
2023/08/30 08:09:01;;;;;;;7.25;4.10;;;;;;;;;;5106912;28;20237;-50
2023/08/30 08:11:29;;;;;;;4.82;3.85;;;;;;;;;;5094677;28;20214;-50
2023/08/30 08:13:56;;;;;;;6.97;4.05;;;;;;;;;;5111306;28;20226;-49
2023/08/30 08:16:23;;;;;;;7.60;3.85;;;;;;;;;;5111082;28;20248;-49
2023/08/30 08:18:51;;;;;;;6.60;4.47;;;;;;;;;;5110696;28;20214;-49
2023/08/30 08:21:19;;;;;;;7.72;3.92;;;;;;;;;;5111264;28;20283;-55
2023/08/30 08:23:49;;;;;;;6.20;4.22;;;;;;;;;;5112735;28;20214;-49
2023/08/30 08:26:16;;;;;;;7.15;4.03;;;;;;;;;;5112707;28;20218;-50
2023/08/30 08:28:44;;;;;;;9.52;4.30;;;;;;;;;;5108720;28;20230;-50
2023/08/30 08:31:11;;;;;;;4.85;3.53;;;;;;;;;;5112070;28;20349;-53
2023/08/30 08:33:40;;;;;;;5.25;3.90;;;;;;;;;;5107765;28;20225;-52
2023/08/30 08:36:07;;;;;;;5.38;3.47;;;;;;;;;;5105411;28;20230;-48
2023/08/30 08:38:34;;;;;;;6.13;3.25;;;;;;;;;;5109971;28;20230;-48
2023/08/30 08:41:03;;;;;;;4.20;3.15;;;;;;;;;;5102514;28;20210;-50
2023/08/30 08:43:32;;;;;;;5.00;3.28;;;;;;;;;;5102164;28;20218;-48
2023/08/30 08:46:00;;;;;;;3.80;3.10;;;;;;;;;;5102282;28;20235;-48
2023/08/30 08:48:29;;;;;;;4.20;3.03;;;;;;;;;;5100687;28;20238;-51
2023/08/30 08:50:57;;;;;;;4.20;3.20;;;;;;;;;;5084551;28;20241;-50
2023/08/30 08:53:24;;;;;;;4.32;3.20;;;;;;;;;;5097453;28;20218;-49
2023/08/30 08:55:52;;;;;;;5.93;3.28;;;;;;;;;;5095105;28;20766;-49
2023/08/30 08:58:19;;;;;;;4.22;3.20;;;;;;;;;;5101691;28;20229;-48
2023/08/30 09:00:46;;;;;;;4.97;3.25;;;;;;;;;;5100767;28;20244;-50
2023/08/30 09:03:14;;;;;;;6.18;3.28;;;;;;;;;;5100666;28;20225;-51
2023/08/30 09:05:43;;;;;;;5.47;3.60;;;;;;;;;;5099293;28;20545;-53
2023/08/30 09:08:13;;;;;;;5.80;3.85;;;;;;;;;;5100414;28;20626;-53
2023/08/30 09:10:40;;;;;;;7.38;3.38;;;;;;;;;;5106526;28;20303;-51
2023/08/30 09:13:07;;;;;;;8.77;3.50;;;;;;;;;;5101987;28;20229;-53
2023/08/30 09:15:38;;;;;;;5.32;3.10;;;;;;;;;;5102247;28;20633;-52
2023/08/30 09:18:17;;;;;;;4.93;3.47;;;;;;;;;;5103077;28;20222;-51
2023/08/30 09:20:45;;;;;;;4.93;3.55;;;;;;;;;;5104420;28;20226;-51
2023/08/30 09:23:21;;;;;;;6.43;3.45;;;;;;;;;;5101726;28;20218;-51
2023/08/30 09:25:55;;;;;;;5.32;3.85;;;;;;;;;;5103402;28;20263;-53
2023/08/30 09:28:22;;;;;;;5.85;3.63;;;;;;;;;;5102589;28;20230;-54
2023/08/30 09:30:51;;;;;;;3.53;3.13;;;;;;;;;;5101191;28;20628;-49
2023/08/30 09:33:36;;;;;;;4.90;3.15;;;;;;;;;;5104810;28;20222;-49
2023/08/30 09:36:09;;;;;;;6.13;3.10;;;;;;;;;;5115589;28;20653;-50
2023/08/30 09:38:37;;;;;;;5.43;3.20;;;;;;;;;;5115402;27;20558;-53
2023/08/30 09:41:05;;;;;;;6.13;2.95;;;;;;;;;;5107708;28;20214;-52
2023/08/30 09:43:36;;;;;;;7.07;2.95;;;;;;;;;;5105315;28;20698;-47
2023/08/30 09:46:04;;;;;;;8.50;3.17;;;;;;;;;;5112606;28;20249;-50
2023/08/30 09:48:32;;;;;;;7.50;3.10;;;;;;;;;;5114619;28;20234;-48
2023/08/30 09:51:02;;;;;;;3.90;2.75;;;;;;;;;;5113839;28;20222;-48
2023/08/30 09:53:29;;;;;;;3.85;2.97;;;;;;;;;;5112767;28;20222;-50
2023/08/30 09:55:58;;;;;;;5.03;2.95;;;;;;;;;;5114030;27;20221;-49
2023/08/30 09:58:27;;;;;;;4.95;2.97;;;;;;;;;;5113832;28;20229;-50
2023/08/30 10:00:54;;;;;;;6.97;2.95;;;;;;;;;;5112621;28;20245;-53
2023/08/30 10:03:22;;;;;;;4.38;2.85;;;;;;;;;;5113852;28;20594;-55
2023/08/30 10:05:59;;;;;;;5.72;3.20;;;;;;;;;;5112716;28;20213;-48
2023/08/30 10:08:30;;;;;;;3.95;3.17;;;;;;;;;;5114007;28;20232;-51
2023/08/30 10:10:58;;;;;;;4.28;2.78;;;;;;;;;;5113089;28;20247;-49
2023/08/30 10:13:26;;;;;;;7.10;3.25;;;;;;;;;;5113782;28;20264;-51
2023/08/30 10:15:59;;;;;;;5.63;3.15;;;;;;;;;;5114969;27;20230;-50
2023/08/30 10:18:29;;;;;;;5.28;3.10;;;;;;;;;;5114130;28;20291;-51
2023/08/30 10:20:57;;;;;;;6.93;3.45;;;;;;;;;;5107583;28;20245;-48
2023/08/30 10:23:25;;;;;;;3.17;2.83;;;;;;;;;;5102033;28;20230;-49
2023/08/30 10:25:53;;;;;;;4.15;3.17;;;;;;;;;;5103067;28;20229;-48
2023/08/30 10:28:23;;;;;;;5.97;3.65;;;;;;;;;;5103962;28;20623;-49
2023/08/30 10:30:51;;;;;;;4.38;3.05;;;;;;;;;;5102786;28;20222;-47
2023/08/30 10:33:20;;;;;;;4.57;3.40;;;;;;;;;;5106043;28;20263;-49
2023/08/30 10:35:51;;;;;;;5.32;3.50;;;;;;;;;;5114059;28;20592;-50
2023/08/30 10:38:27;;;;;;;5.22;3.28;;;;;;;;;;5115106;28;20576;-48
2023/08/30 10:40:55;;;;;;;5.57;3.40;;;;;;;;;;5114933;28;20214;-50
2023/08/30 10:43:32;;;;;;;6.20;3.60;;;;;;;;;;5110420;28;20279;-54
2023/08/30 10:46:06;;;;;;;7.30;3.67;;;;;;;;;;5109756;28;20237;-50
2023/08/30 10:48:35;;;;;;;5.43;3.55;;;;;;;;;;5113608;28;20237;-49
2023/08/30 10:51:07;;;;;;;6.30;3.80;;;;;;;;;;5114443;28;20744;-50
2023/08/30 10:53:34;;;;;;;5.10;3.53;;;;;;;;;;5098483;28;20201;-51
2023/08/30 10:56:11;;;;;;;5.57;3.63;;;;;;;;;;5115394;27;20206;-51
2023/08/30 10:58:40;;;;;;;8.10;3.25;;;;;;;;;;5115050;27;20287;-49
2023/08/30 11:01:09;;;;;;;7.45;3.65;;;;;;;;;;5113963;28;20225;-52
2023/08/30 11:03:36;;;;;;;5.63;3.40;;;;;;;;;;5097531;28;20655;-49
2023/08/30 11:06:03;;;;;;;9.50;3.38;;;;;;;;;;5114431;28;20648;-50
2023/08/30 11:08:31;;;;;;;4.63;3.10;;;;;;;;;;5114656;28;20229;-49
2023/08/30 11:11:03;;;;;;;4.70;3.08;;;;;;;;;;5113996;28;20202;-50
2023/08/30 11:13:31;;;;;;;8.10;3.03;;;;;;;;;;5105659;28;20218;-51
2023/08/30 11:16:03;;;;;;;4.45;3.10;;;;;;;;;;5112721;28;20218;-50
2023/08/30 11:18:37;;;;;;;4.50;3.05;;;;;;;;;;5112789;28;20626;-49
2023/08/30 11:21:05;;;;;;;6.35;3.38;;;;;;;;;;5113624;28;20246;-53
2023/08/30 11:23:33;;;;;;;4.97;3.00;;;;;;;;;;5108900;27;20222;-52
2023/08/30 11:26:03;;;;;;;4.97;3.25;;;;;;;;;;5112032;28;20312;-50
2023/08/30 11:28:31;;;;;;;5.43;3.55;;;;;;;;;;5112789;28;20253;-50
2023/08/30 11:30:58;;;;;;;4.25;3.30;;;;;;;;;;5113573;28;20237;-49
2023/08/30 11:33:25;;;;;;;10.93;3.53;;;;;;;;;;5112779;28;20309;-51
2023/08/30 11:35:52;;;;;;;6.53;3.28;;;;;;;;;;5113355;28;20222;-50
2023/08/30 11:38:21;;;;;;;5.50;2.95;;;;;;;;;;5113071;27;20924;-50
2023/08/30 11:40:49;;;;;;;5.93;2.92;;;;;;;;;;5111740;28;20562;-49
2023/08/30 11:43:17;;;;;;;7.30;2.78;;;;;;;;;;5112555;28;20218;-52
2023/08/30 11:45:44;;;;;;;5.10;3.22;;;;;;;;;;5113558;27;20594;-52
2023/08/30 11:48:12;;;;;;;3.67;2.55;;;;;;;;;;5109351;27;20230;-53
2023/08/30 11:50:39;;;;;;;4.03;2.47;;;;;;;;;;5101020;28;20337;-50
2023/08/30 11:53:15;;;;;;;4.22;2.35;;;;;;;;;;5107949;28;20225;-50
2023/08/30 11:55:42;;;;;;;4.13;2.63;;;;;;;;;;5116695;27;20224;-49
2023/08/30 11:58:09;;;;;;;4.68;2.67;;;;;;;;;;5113076;28;20593;-53
2023/08/30 12:00:37;;;;;;;5.45;2.60;;;;;;;;;;5113313;28;20285;-50
2023/08/30 12:03:07;;;;;;;4.80;2.50;;;;;;;;;;5113069;28;20580;-50
2023/08/30 12:05:36;;;;;;;3.22;2.40;;;;;;;;;;5123777;27;20545;-50
2023/08/30 12:08:04;;;;;;;3.67;2.65;;;;;;;;;;5104319;28;20198;-51
2023/08/30 12:10:31;;;;;;;6.93;2.70;;;;;;;;;;5099448;28;20261;-51
2023/08/30 12:12:59;;;;;;;4.00;2.45;;;;;;;;;;5109022;28;20226;-50
2023/08/30 12:15:27;;;;;;;3.63;2.60;;;;;;;;;;5112017;28;20218;-50
2023/08/30 12:17:55;;;;;;;6.05;2.60;;;;;;;;;;5111188;28;20222;-50
2023/08/30 12:20:23;;;;;;;7.60;2.63;;;;;;;;;;5108661;28;20625;-50
2023/08/30 12:22:51;;;;;;;5.32;2.20;;;;;;;;;;5108757;28;20225;-50
2023/08/30 12:25:19;;;;;;;4.57;2.30;;;;;;;;;;5112031;28;20222;-50
2023/08/30 12:27:47;;;;;;;3.30;2.40;;;;;;;;;;5112419;28;20222;-51
2023/08/30 12:30:16;;;;;;;2.80;2.35;;;;;;;;;;5111832;28;20758;-50
2023/08/30 12:32:44;;;;;;;5.53;2.50;;;;;;;;;;5112523;28;20209;-51
2023/08/30 12:35:11;;;;;;;6.03;2.22;;;;;;;;;;5111973;28;20228;-51
2023/08/30 12:37:39;;;;;;;3.05;2.20;;;;;;;;;;5112434;28;20230;-51
2023/08/30 12:40:06;;;;;;;3.85;2.28;;;;;;;;;;5112001;28;20249;-53
2023/08/30 12:42:34;;;;;;;5.70;2.15;;;;;;;;;;5111424;28;20258;-49
2023/08/30 12:45:01;;;;;;;6.85;2.17;;;;;;;;;;5111988;28;20283;-49
2023/08/30 12:47:28;;;;;;;4.68;2.60;;;;;;;;;;5111982;28;20275;-50
2023/08/30 12:49:55;;;;;;;4.07;2.53;;;;;;;;;;5111723;28;20240;-49
2023/08/30 12:52:23;;;;;;;4.57;3.00;;;;;;;;;;5111028;28;20226;-50
2023/08/30 12:54:52;;;;;;;5.88;2.60;;;;;;;;;;5097767;28;20233;-47
2023/08/30 12:57:19;;;;;;;8.07;3.10;;;;;;;;;;5092246;28;20726;-49
2023/08/30 12:59:46;;;;;;;4.68;2.72;;;;;;;;;;5092361;28;20229;-46
2023/08/30 13:02:14;;;;;;;6.35;2.67;;;;;;;;;;5090547;28;20565;-53
2023/08/30 13:04:41;;;;;;;4.47;2.88;;;;;;;;;;5091901;28;20226;-51
2023/08/30 13:07:08;;;;;;;3.92;2.90;;;;;;;;;;5091910;28;20605;-49
2023/08/30 13:09:35;;;;;;;4.38;3.08;;;;;;;;;;5097562;28;20571;-48
2023/08/30 13:12:03;;;;;;;5.22;2.95;;;;;;;;;;5096162;28;20226;-52
2023/08/30 13:14:30;;;;;;;3.78;3.10;;;;;;;;;;5109299;28;20207;-48
2023/08/30 13:16:58;;;;;;;9.00;3.60;;;;;;;;;;5095960;28;20241;-49
2023/08/30 13:19:25;;;;;;;6.65;3.85;;;;;;;;;;5106191;28;20294;-48
2023/08/30 13:21:52;;;;;;;16.48;3.60;;;;;;;;;;5097235;28;20226;-50
2023/08/30 13:24:19;;;;;;;4.38;3.55;;;;;;;;;;5106193;28;20601;-47
2023/08/30 13:26:47;;;;;;;8.43;3.58;;;;;;;;;;5115095;28;20275;-48
2023/08/30 13:29:15;;;;;;;5.18;3.17;;;;;;;;;;5115867;28;20249;-51
2023/08/30 13:31:42;;;;;;;5.85;3.80;;;;;;;;;;5116094;27;20720;-49
2023/08/30 13:34:09;;;;;;;9.40;4.20;;;;;;;;;;5116321;28;20237;-47
2023/08/30 13:36:39;;;;;;;6.18;3.92;;;;;;;;;;5115904;28;20234;-48
2023/08/30 13:39:06;;;;;;;6.03;4.00;;;;;;;;;;5115586;28;20222;-50
2023/08/30 13:41:35;;;;;;;8.60;4.30;;;;;;;;;;5116234;28;20270;-50
2023/08/30 13:44:06;;;;;;;5.13;4.00;;;;;;;;;;5114818;28;20229;-49
2023/08/30 13:46:33;;;;;;;4.07;3.53;;;;;;;;;;5116444;27;20283;-47
2023/08/30 13:49:00;;;;;;;6.80;3.97;;;;;;;;;;5109806;28;20226;-49
2023/08/30 13:51:27;;;;;;;6.07;3.63;;;;;;;;;;5113241;28;20221;-48
2023/08/30 13:53:54;;;;;;;5.00;3.88;;;;;;;;;;5107908;28;20218;-47
2023/08/30 13:56:22;;;;;;;5.63;3.78;;;;;;;;;;5103158;28;20314;-47
2023/08/30 13:58:50;;;;;;;9.40;4.43;;;;;;;;;;5104562;28;20206;-49
2023/08/30 14:01:17;;;;;;;5.97;4.22;;;;;;;;;;5115978;28;20226;-47
2023/08/30 14:03:44;;;;;;;4.95;3.65;;;;;;;;;;5112458;28;20271;-47
2023/08/30 14:06:12;;;;;;;5.90;4.10;;;;;;;;;;5109009;28;20310;-49
2023/08/30 14:08:39;;;;;;;5.90;4.25;;;;;;;;;;5104446;28;20238;-50
2023/08/30 14:11:06;;;;;;;5.32;3.75;;;;;;;;;;5112774;28;20221;-50
2023/08/30 14:13:34;;;;;;;6.07;3.45;;;;;;;;;;5108893;28;20263;-50
2023/08/30 14:16:02;;;;;;;6.28;4.20;;;;;;;;;;5114912;28;20294;-49
2023/08/30 14:18:30;;;;;;;5.72;4.07;;;;;;;;;;5113783;28;20213;-50
2023/08/30 14:20:59;;;;;;;4.40;3.53;;;;;;;;;;5115183;28;20226;-54
2023/08/30 14:23:27;;;;;;;6.05;4.03;;;;;;;;;;5113381;28;20268;-52
2023/08/30 14:26:09;;;;;;;8.10;4.07;;;;;;;;;;5114784;28;20226;-49
2023/08/30 14:28:36;;;;;;;6.72;4.30;;;;;;;;;;5114476;27;20536;-49
2023/08/30 14:31:07;;;;;;;6.63;4.20;;;;;;;;;;5111081;28;20222;-49
2023/08/30 14:33:35;;;;;;;5.97;4.05;;;;;;;;;;5107819;28;20720;-49
2023/08/30 14:36:03;;;;;;;6.03;3.53;;;;;;;;;;5114191;28;20230;-51
2023/08/30 14:38:30;;;;;;;6.10;3.67;;;;;;;;;;5112339;28;20314;-47
2023/08/30 14:40:59;;;;;;;5.65;4.22;;;;;;;;;;5114734;28;20225;-47
2023/08/30 14:43:27;;;;;;;5.78;3.60;;;;;;;;;;5114496;28;20229;-46
2023/08/30 14:46:03;;;;;;;4.47;3.70;;;;;;;;;;5114702;28;20218;-49
2023/08/30 14:48:39;;;;;;;9.77;4.00;;;;;;;;;;5114456;28;20222;-47
2023/08/30 14:51:07;;;;;;;6.10;4.03;;;;;;;;;;5112522;28;20222;-47
2023/08/30 14:53:35;;;;;;;5.40;3.42;;;;;;;;;;5113515;28;20218;-46